Terminal Aerodrome Forecast
Issued by NWS

Home | Current Version | Previous Version | Text Only | Print | Product List | Glossary On
Versions: 1 2 3 4 5 6 7 8 9 10 11 12 13 14 15 16 17
000
FTUS43 KICT 280520
TAFRSL
TAF
KRSL 280520Z 2806/2906 33012KT P6SM VCSH BKN070
     FM280800 33012KT P6SM SCT070 BKN250
     FM290200 27006KT P6SM SKC=

USA.gov is the U.S. government's official web portal to all federal, state and local government web resources and services.